Fulmar — WDD3992 — position and weather

sailwx.info

Track history (hours):
 
Tides and Currents Weather Stations Pressure Air Temp Water Temp Dewpoint Dewpoint Depression Visibility Wind Speed Wind Dir Waves Ship Positions

Oceanographic research ship Fulmar (United States)

Owner: NOAA R/V Fulmar, Monterey, CA. More information available from US FCC via Universal Licensing System.

Last reported at 2018-Nov-02 21:45 UTC. Time now 2018-Dec-12 16:07 UTC.
Position N 36°36' W 121°59'.
Warning: this ship's position is 39 days out of date.

Length 20 m; draft 2 m.

Type: Ship. MMSI: 367139040.

Date/timePositionNaut miles runAvg speedWind from/ knotsBaromVisibWave heightAir tempDewpointWater temp
2018-Nov-02 21:45N 36°36' W 121°59'6 8.4
2018-Nov-02 21:05N 36°31' W 121°58'0 7.6
2018-Nov-02 21:03N 36°31' W 121°58'1 7.9
2018-Nov-02 20:58N 36°30' W 121°58'3 7.4
2018-Nov-02 20:30N 36°27' W 121°57'3 7.2
2018-Nov-02 20:03N 36°23' W 121°56'0 7.7
2018-Nov-02 20:00N 36°23' W 121°56'4 7.5
2018-Nov-02 19:30N 36°19' W 121°55'4 8.5
2018-Nov-02 19:03N 36°16' W 121°53'0 8.5
2018-Nov-02 19:00N 36°16' W 121°53'611.2
2018-Nov-02 18:30N 36°12' W 121°47'714.8
2018-Nov-02 18:03N 36°07' W 121°42'113.5
2018-Nov-02 18:00N 36°07' W 121°41'714.1
2018-Nov-02 17:29N 36°01' W 121°36'715.0
2018-Nov-02 17:03N 35°55' W 121°32'114.3
2018-Nov-02 16:58N 35°54' W 121°32'814.2
2018-Nov-02 16:25N 35°47' W 121°27'616.9
2018-Nov-02 16:03N 35°42' W 121°23'117.8
2018-Nov-02 16:00N 35°42' W 121°22'31 1.5
2018-Nov-01 20:08N 35°18' W 120°58'113.6
2018-Nov-01 20:03N 35°17' W 120°59'0 0.3
2018-Nov-01 20:00N 35°17' W 120°59'814.7
2018-Nov-01 19:27N 35°10' W 120°55'1117.7
2018-Nov-01 18:50N 34°60' W 120°50'617.1
2018-Nov-01 18:30N 34°55' W 120°47'919.3
2018-Nov-01 18:03N 34°46' W 120°45'119.2
2018-Nov-01 18:00N 34°45' W 120°45'1018.2
2018-Nov-01 17:29N 34°36' W 120°43'716.6
2018-Nov-01 17:03N 34°30' W 120°37'112.7
2018-Nov-01 17:01N 34°30' W 120°37'612.5
2018-Nov-01 16:30N 34°26' W 120°31'818.5
2018-Nov-01 16:03N 34°24' W 120°21'119.7
2018-Nov-01 15:59N 34°23' W 120°20'919.3
2018-Nov-01 15:30N 34°22' W 120°08'1019.8
2018-Nov-01 15:01N 34°21' W 119°57'020.4
2018-Nov-01 15:00N 34°21' W 119°56'1313.5
2018-Nov-01 14:03N 34°24' W 119°41'0 0.0
2018-Nov-01 13:56N 34°24' W 119°41'0 0.0
2018-Nov-01 13:29N 34°24' W 119°41'0 0.0
2018-Oct-31 13:34N 34°24' W 119°41'0 0.0
2018-Oct-31 13:30N 34°24' W 119°41'0 0.0
2018-Oct-30 22:02N 34°24' W 119°41'0 0.0
2018-Oct-30 22:00N 34°24' W 119°41'4 8.7
2018-Oct-30 21:30N 34°23' W 119°46'4 8.5
2018-Oct-30 21:03N 34°23' W 119°51'0 1.0
2018-Oct-30 21:00N 34°23' W 119°51'0 0.4
2018-Oct-30 20:30N 34°23' W 119°51'0 0.4
2018-Oct-30 20:03N 34°23' W 119°51'0 0.1
2018-Oct-30 20:00N 34°23' W 119°51'0 0.6
2018-Oct-30 19:30N 34°23' W 119°52'0 0.6
2018-Oct-30 19:02N 34°23' W 119°52'0 1.4
2018-Oct-30 19:00N 34°23' W 119°52'0 0.6
2018-Oct-30 18:29N 34°23' W 119°52'511.2
2018-Oct-30 18:03N 34°24' W 119°58'115.1
2018-Oct-30 18:00N 34°24' W 119°59'0 0.3
2018-Oct-30 17:30N 34°24' W 119°59'0 0.4
2018-Oct-30 17:02N 34°24' W 119°59'0 0.2
2018-Oct-30 17:00N 34°24' W 119°59'0 0.5
2018-Oct-30 16:31N 34°24' W 119°59'0 0.4
2018-Oct-30 16:01N 34°24' W 119°60'0 0.1
2018-Oct-30 15:58N 34°24' W 119°60'0 0.2
2018-Oct-30 15:30N 34°24' W 119°60'613.1
2018-Oct-30 15:03N 34°23' W 119°53'115.0
2018-Oct-30 15:00N 34°23' W 119°52'9 9.2
2018-Oct-30 14:03N 34°24' W 119°41'0 0.0
2018-Oct-30 13:29N 34°24' W 119°41'0 0.0
2018-Oct-30 00:47N 34°24' W 119°41'0 0.6
2018-Oct-30 00:30N 34°24' W 119°42'1 1.7
2018-Oct-30 00:03N 34°24' W 119°41'119.6
2018-Oct-30 00:00N 34°23' W 119°40'1019.9
2018-Oct-29 23:30N 34°14' W 119°35'920.0
2018-Oct-29 23:03N 34°06' W 119°29'120.5
2018-Oct-29 23:01N 34°06' W 119°29'917.8
2018-Oct-29 22:30N 33°57' W 119°25'2 4.0
2018-Oct-29 22:03N 33°57' W 119°27'121.8
2018-Oct-29 22:00N 33°57' W 119°28'1 2.3
2018-Oct-29 21:30N 33°58' W 119°29'1 1.6
2018-Oct-29 21:03N 33°58' W 119°29'0 0.2
2018-Oct-29 21:00N 33°58' W 119°29'0 0.7
2018-Oct-29 20:30N 33°58' W 119°29'0 0.2
2018-Oct-29 20:03N 33°58' W 119°29'0 1.1
2018-Oct-29 20:00N 33°58' W 119°29'0 0.2
2018-Oct-29 19:30N 33°58' W 119°29'0 1.0
2018-Oct-29 19:03N 33°58' W 119°29'0 0.2
2018-Oct-29 19:00N 33°58' W 119°29'0 0.3
2018-Oct-29 18:30N 33°58' W 119°28'0 0.3
2018-Oct-29 18:03N 33°58' W 119°28'0 0.1
2018-Oct-29 18:00N 33°58' W 119°28'0 0.2
2018-Oct-29 17:30N 33°57' W 119°28'0 0.3
2018-Oct-29 17:03N 33°57' W 119°28'0 0.4
2018-Oct-29 17:00N 33°57' W 119°28'0 0.2
2018-Oct-29 16:30N 33°57' W 119°28'0 0.5
2018-Oct-29 16:03N 33°57' W 119°28'0 1.2
2018-Oct-29 16:00N 33°57' W 119°28'714.7
2018-Oct-29 15:30N 34°05' W 119°30'818.7
2018-Oct-29 15:03N 34°12' W 119°35'118.6
2018-Oct-29 15:01N 34°13' W 119°35'1018.8
2018-Oct-29 14:30N 34°22' W 119°40'3 6.1
2018-Oct-29 14:00N 34°24' W 119°41'0 0.0
2018-Oct-29 00:06N 34°24' W 119°41'0 0.0
2018-Oct-29 00:03N 34°24' W 119°41'0 1.2
2018-Oct-29 00:00N 34°24' W 119°41'815.6
2018-Oct-28 23:30N 34°18' W 119°37'818.1
2018-Oct-28 23:04N 34°11' W 119°31'0 0.9
2018-Oct-28 22:59N 34°11' W 119°31'0 0.2
2018-Oct-28 22:31N 34°11' W 119°31'0 0.8
2018-Oct-28 22:03N 34°11' W 119°31'0 0.0
2018-Oct-28 22:00N 34°11' W 119°31'0 0.1
2018-Oct-28 21:30N 34°11' W 119°31'0 0.1
2018-Oct-28 21:03N 34°11' W 119°31'0 0.3
2018-Oct-28 21:00N 34°11' W 119°31'815.8
2018-Oct-28 20:30N 34°13' W 119°41'0 0.9
2018-Oct-28 20:03N 34°13' W 119°41'0 0.0
2018-Oct-28 20:00N 34°13' W 119°41'0 0.1
2018-Oct-28 19:31N 34°13' W 119°41'0 0.7
2018-Oct-28 19:03N 34°13' W 119°40'0 2.1
2018-Oct-28 19:00N 34°13' W 119°40'0 0.5
2018-Oct-28 18:30N 34°13' W 119°40'1 2.4
2018-Oct-28 18:03N 34°13' W 119°41'0 0.1
2018-Oct-28 17:59N 34°13' W 119°41'0 0.2
2018-Oct-28 17:30N 34°13' W 119°41'0 0.2
2018-Oct-28 17:03N 34°13' W 119°41'0 0.3
2018-Oct-28 17:00N 34°13' W 119°41'0 0.5
2018-Oct-28 16:30N 34°14' W 119°41'1 2.2
2018-Oct-28 16:03N 34°14' W 119°42'0 1.0
2018-Oct-28 16:00N 34°14' W 119°42'2 4.6
2018-Oct-28 15:30N 34°16' W 119°42'818.6
2018-Oct-28 15:04N 34°24' W 119°41'0 7.1
2018-Oct-28 15:00N 34°25' W 119°41'0 0.7
2018-Oct-28 14:30N 34°24' W 119°42'0 0.3
2018-Oct-28 14:00N 34°24' W 119°41'0 0.0
2018-Oct-28 01:38N 34°24' W 119°41'0 1.9
2018-Oct-28 01:30N 34°24' W 119°41'614.4
2018-Oct-28 01:03N 34°19' W 119°45'118.1
2018-Oct-28 01:00N 34°18' W 119°45'917.2
2018-Oct-28 00:30N 34°11' W 119°51'816.8
2018-Oct-28 00:03N 34°05' W 119°56'115.2
2018-Oct-28 00:00N 34°04' W 119°57'816.1
2018-Oct-27 23:30N 33°56' W 119°57'817.3
2018-Oct-27 23:03N 33°49' W 120°00'117.2
2018-Oct-27 23:01N 33°48' W 120°01'510.6
2018-Oct-27 22:31N 33°43' W 120°03'0 0.1
2018-Oct-27 22:03N 33°43' W 120°03'0 0.2
2018-Oct-27 22:00N 33°43' W 120°03'0 0.2
2018-Oct-27 21:31N 33°43' W 120°03'1 1.4
2018-Oct-27 21:03N 33°42' W 120°03'0 2.0
2018-Oct-27 20:58N 33°42' W 120°03'0 0.8
2018-Oct-27 20:31N 33°42' W 120°03'1 2.8
2018-Oct-27 20:03N 33°42' W 120°01'117.4
2018-Oct-27 20:00N 33°43' W 120°01'4 7.4
2018-Oct-27 19:29N 33°46' W 119°59'0 0.5
2018-Oct-27 19:02N 33°46' W 119°59'0 0.0
2018-Oct-27 18:59N 33°46' W 119°59'0 0.4
2018-Oct-27 18:30N 33°46' W 119°59'0 0.0
2018-Oct-27 18:04N 33°46' W 119°59'0 1.2
2018-Oct-27 18:00N 33°46' W 119°59'4 8.7
2018-Oct-27 17:30N 33°48' W 120°04'818.4
2018-Oct-27 17:03N 33°53' W 120°12'118.1
2018-Oct-27 17:00N 33°53' W 120°13'1018.6
2018-Oct-27 16:27N 33°59' W 120°24'616.2
2018-Oct-27 16:04N 34°02' W 120°30'116.2
2018-Oct-27 16:00N 34°03' W 120°31'2 5.0
2018-Oct-27 15:30N 34°05' W 120°31'511.9
2018-Oct-27 15:03N 34°06' W 120°25'1 8.7
2018-Oct-27 15:00N 34°05' W 120°24'3 3.4
2018-Oct-27 14:03N 34°03' W 120°21'0 0.1
2018-Oct-27 14:00N 34°03' W 120°21'0 0.0
2018-Oct-27 13:30N 34°03' W 120°21'0 0.0
2018-Oct-27 13:03N 34°03' W 120°21'0 0.1
2018-Oct-27 13:00N 34°03' W 120°21'0 0.0
2018-Oct-27 12:30N 34°03' W 120°21'0 0.0
2018-Oct-27 12:03N 34°03' W 120°21'0 0.3
2018-Oct-27 12:01N 34°03' W 120°21'0 0.0
2018-Oct-27 11:30N 34°03' W 120°21'0 0.0
2018-Oct-27 11:03N 34°03' W 120°21'0 0.1
2018-Oct-27 11:00N 34°03' W 120°21'0 0.0
2018-Oct-27 10:30N 34°03' W 120°21'0 0.0
2018-Oct-27 10:03N 34°03' W 120°21'0 0.0
2018-Oct-27 10:00N 34°03' W 120°21'0 0.0
2018-Oct-27 09:31N 34°03' W 120°21'0 0.0
2018-Oct-27 09:03N 34°03' W 120°21'0 0.0
2018-Oct-27 09:00N 34°03' W 120°21'0 0.0
2018-Oct-27 08:30N 34°03' W 120°21'0 0.0
2018-Oct-27 08:03N 34°03' W 120°21'0 0.1
2018-Oct-27 08:00N 34°03' W 120°21'0 0.0
2018-Oct-27 07:30N 34°03' W 120°21'0 0.0
2018-Oct-27 07:03N 34°03' W 120°21'0 0.1
2018-Oct-27 07:01N 34°03' W 120°21'0 0.0
2018-Oct-27 06:30N 34°03' W 120°21'0 0.0
2018-Oct-27 06:03N 34°03' W 120°21'0 0.2
2018-Oct-27 06:01N 34°03' W 120°21'0 0.0
2018-Oct-27 05:30N 34°03' W 120°21'0 0.0
2018-Oct-27 05:03N 34°03' W 120°21'0 0.1
2018-Oct-27 04:59N 34°03' W 120°21'0 0.0
2018-Oct-27 04:29N 34°03' W 120°21'0 0.0
2018-Oct-27 04:03N 34°03' W 120°21'0 0.0
2018-Oct-27 04:00N 34°03' W 120°21'0 0.0
2018-Oct-27 03:31N 34°03' W 120°21'0 0.0
2018-Oct-27 03:03N 34°03' W 120°21'0 0.1
2018-Oct-27 02:59N 34°03' W 120°21'0 0.0
2018-Oct-27 02:30N 34°03' W 120°21'0 0.0
2018-Oct-27 02:03N 34°03' W 120°21'0 0.1
2018-Oct-27 02:00N 34°03' W 120°21'0 0.0
2018-Oct-27 01:30N 34°03' W 120°21'613.6
2018-Oct-27 01:03N 33°59' W 120°16'119.4
2018-Oct-27 01:01N 33°59' W 120°15'14 8.2
2018-Oct-26 23:19N 33°48' W 120°04'416.7
2018-Oct-26 23:03N 33°44' W 120°03'112.3
2018-Oct-26 23:00N 33°43' W 120°03'1 1.1
2018-Oct-26 22:23N 33°43' W 120°02'0 0.6
2018-Oct-26 22:03N 33°43' W 120°02'0 0.0
2018-Oct-26 22:00N 33°43' W 120°02'1 1.4
2018-Oct-26 21:30N 33°43' W 120°03'1 1.1
2018-Oct-26 21:02N 33°44' W 120°03'0 2.4
2018-Oct-26 21:00N 33°44' W 120°03'0 0.6
2018-Oct-26 20:28N 33°43' W 120°03'0 0.6
2018-Oct-26 20:03N 33°43' W 120°03'0 0.1
2018-Oct-26 20:00N 33°43' W 120°03'0 0.2
2018-Oct-26 19:29N 33°43' W 120°03'0 0.2
2018-Oct-26 19:03N 33°43' W 120°03'0 1.1
2018-Oct-26 19:00N 33°43' W 120°03'0 0.2
2018-Oct-26 18:30N 33°43' W 120°03'4 8.4
2018-Oct-26 18:02N 33°43' W 119°58'010.7
2018-Oct-26 18:00N 33°43' W 119°58'3 5.6
2018-Oct-26 17:30N 33°43' W 119°55'1 2.1
2018-Oct-26 17:03N 33°42' W 119°54'0 4.3
2018-Oct-26 17:01N 33°42' W 119°53'0 0.7
2018-Oct-26 16:27N 33°42' W 119°53'0 0.8
2018-Oct-26 15:58N 33°42' W 119°53'0 0.6
2018-Oct-26 15:31N 33°42' W 119°54'3 7.4
2018-Oct-26 15:03N 33°45' W 119°56'119.1
2018-Oct-26 15:00N 33°45' W 119°57'12 0.9
2018-Oct-26 01:44N 33°54' W 120°06'0 0.0
2018-Oct-26 00:11N 33°54' W 120°06'9 8.4
2018-Oct-25 23:08N 33°46' W 120°05'0 1.0
2018-Oct-25 23:03N 33°46' W 120°05'0 1.3
2018-Oct-25 22:58N 33°46' W 120°05'0 0.8
2018-Oct-25 22:30N 33°46' W 120°04'0 0.6
2018-Oct-25 22:01N 33°46' W 120°04'0 1.0
2018-Oct-25 22:00N 33°46' W 120°04'0 0.7
2018-Oct-25 21:19N 33°45' W 120°04'0 0.7
2018-Oct-25 20:53N 33°45' W 120°04'0 0.0
2018-Oct-25 20:24N 33°45' W 120°04'410.6
2018-Oct-25 20:03N 33°46' W 120°00'0 1.3
2018-Oct-25 20:00N 33°46' W 120°00'0 0.6
2018-Oct-25 19:31N 33°45' W 120°00'0 0.8
2018-Oct-25 19:03N 33°46' W 119°60'0 1.3
2018-Oct-25 19:00N 33°45' W 119°60'1 1.2
2018-Oct-25 18:30N 33°45' W 120°00'0 0.7
2018-Oct-25 18:03N 33°45' W 120°00'0 0.4
2018-Oct-25 18:00N 33°45' W 120°00'3 5.6
2018-Oct-25 17:29N 33°48' W 119°60'818.3
2018-Oct-25 17:03N 33°55' W 119°58'118.0
2018-Oct-25 17:00N 33°56' W 119°58'917.0
2018-Oct-25 16:30N 34°05' W 119°56'817.9
2018-Oct-25 16:03N 34°11' W 119°51'118.0
2018-Oct-25 16:00N 34°12' W 119°51'917.8
2018-Oct-25 15:30N 34°20' W 119°44'510.1
2018-Oct-25 14:59N 34°24' W 119°42'0 0.0
2018-Oct-25 14:29N 34°24' W 119°42'0 0.3
2018-Oct-25 14:00N 34°24' W 119°41'0 0.0
2018-Oct-25 13:29N 34°24' W 119°41'0 0.0
2018-Oct-25 00:22N 34°24' W 119°41'2 7.0
2018-Oct-25 00:03N 34°22' W 119°40'118.1
2018-Oct-25 00:00N 34°22' W 119°40'917.5
2018-Oct-24 23:30N 34°14' W 119°36'817.8
2018-Oct-24 23:03N 34°06' W 119°32'118.3
2018-Oct-24 23:01N 34°05' W 119°32'815.0
2018-Oct-24 22:30N 33°58' W 119°35'510.1
2018-Oct-24 22:03N 33°56' W 119°40'0 0.0
2018-Oct-24 22:00N 33°56' W 119°40'0 0.7
2018-Oct-24 21:30N 33°56' W 119°40'1 1.4
2018-Oct-24 21:03N 33°56' W 119°39'0 0.0
2018-Oct-24 20:58N 33°56' W 119°39'0 0.0
2018-Oct-24 20:31N 33°56' W 119°39'2 5.2
2018-Oct-24 20:03N 33°57' W 119°42'0 2.8
2018-Oct-24 19:59N 33°57' W 119°42'0 0.8
2018-Oct-24 19:31N 33°57' W 119°42'0 0.5
2018-Oct-24 19:03N 33°56' W 119°42'0 0.9
2018-Oct-24 18:30N 33°56' W 119°42'613.8
2018-Oct-24 18:03N 33°55' W 119°49'0 8.4
2018-Oct-24 18:00N 33°55' W 119°50'0 0.5
2018-Oct-24 17:30N 33°55' W 119°50'1 0.8
2018-Oct-24 16:42N 33°56' W 119°51'0 0.4
2018-Oct-24 16:03N 33°56' W 119°50'0 0.2
2018-Oct-24 15:54N 33°56' W 119°50'0 0.1
2018-Oct-24 15:29N 33°56' W 119°50'4 7.9
2018-Oct-24 14:58N 33°56' W 119°45'918.9
2018-Oct-24 14:30N 33°59' W 119°35'4 6.2
2018-Oct-24 13:56N 34°01' W 119°32'0 0.0
2018-Oct-24 11:56N 34°01' W 119°32'0 0.0
2018-Oct-24 10:26N 34°01' W 119°32'0 0.0
2018-Oct-24 02:50N 34°01' W 119°32'0 0.0
2018-Oct-24 02:20N 34°01' W 119°32'0 0.0
2018-Oct-24 02:02N 34°01' W 119°32'0 0.0
2018-Oct-24 01:02N 34°01' W 119°32'0 0.0
2018-Oct-24 00:59N 34°01' W 119°32'0 0.0
2018-Oct-24 00:30N 34°01' W 119°32'0 0.0
2018-Oct-24 00:03N 34°01' W 119°32'0 0.1
2018-Oct-24 00:00N 34°01' W 119°32'0 0.0
2018-Oct-23 23:30N 34°01' W 119°32'0 0.0
2018-Oct-23 23:03N 34°01' W 119°32'0 0.0
2018-Oct-23 23:00N 34°01' W 119°32'4 7.1
2018-Oct-23 22:30N 33°58' W 119°30'0 0.5
2018-Oct-23 22:02N 33°58' W 119°30'0 0.0
2018-Oct-23 21:59N 33°58' W 119°30'  
Track history (hours):
 
Tides and Currents Weather Stations Pressure Air Temp Water Temp Dewpoint Dewpoint Depression Visibility Wind Speed Wind Dir Waves Ship Positions

Oceanographic research ship Fulmar (United States)

Owner: NOAA R/V Fulmar, Monterey, CA. More information available from US FCC via Universal Licensing System.

Last reported at 2018-Nov-02 21:45 UTC. Time now 2018-Dec-12 16:07 UTC.
Position N 36°36' W 121°59'.
Warning: this ship's position is 39 days out of date.

Length 20 m; draft 2 m.

Type: Ship. MMSI: 367139040.

Date/timePositionNaut miles runAvg speedWind from/ knotsBaromVisibWave heightAir tempDewpointWater temp
2018-Nov-02 21:45N 36°36' W 121°59'6 8.4
2018-Nov-02 21:05N 36°31' W 121°58'0 7.6
2018-Nov-02 21:03N 36°31' W 121°58'1 7.9
2018-Nov-02 20:58N 36°30' W 121°58'3 7.4
2018-Nov-02 20:30N 36°27' W 121°57'3 7.2
2018-Nov-02 20:03N 36°23' W 121°56'0 7.7
2018-Nov-02 20:00N 36°23' W 121°56'4 7.5
2018-Nov-02 19:30N 36°19' W 121°55'4 8.5
2018-Nov-02 19:03N 36°16' W 121°53'0 8.5
2018-Nov-02 19:00N 36°16' W 121°53'611.2
2018-Nov-02 18:30N 36°12' W 121°47'714.8
2018-Nov-02 18:03N 36°07' W 121°42'113.5
2018-Nov-02 18:00N 36°07' W 121°41'714.1
2018-Nov-02 17:29N 36°01' W 121°36'715.0
2018-Nov-02 17:03N 35°55' W 121°32'114.3
2018-Nov-02 16:58N 35°54' W 121°32'814.2
2018-Nov-02 16:25N 35°47' W 121°27'616.9
2018-Nov-02 16:03N 35°42' W 121°23'117.8
2018-Nov-02 16:00N 35°42' W 121°22'31 1.5
2018-Nov-01 20:08N 35°18' W 120°58'113.6
2018-Nov-01 20:03N 35°17' W 120°59'0 0.3
2018-Nov-01 20:00N 35°17' W 120°59'814.7
2018-Nov-01 19:27N 35°10' W 120°55'1117.7
2018-Nov-01 18:50N 34°60' W 120°50'617.1
2018-Nov-01 18:30N 34°55' W 120°47'919.3
2018-Nov-01 18:03N 34°46' W 120°45'119.2
2018-Nov-01 18:00N 34°45' W 120°45'1018.2
2018-Nov-01 17:29N 34°36' W 120°43'716.6
2018-Nov-01 17:03N 34°30' W 120°37'112.7
2018-Nov-01 17:01N 34°30' W 120°37'612.5
2018-Nov-01 16:30N 34°26' W 120°31'818.5
2018-Nov-01 16:03N 34°24' W 120°21'119.7
2018-Nov-01 15:59N 34°23' W 120°20'919.3
2018-Nov-01 15:30N 34°22' W 120°08'1019.8
2018-Nov-01 15:01N 34°21' W 119°57'020.4
2018-Nov-01 15:00N 34°21' W 119°56'1313.5
2018-Nov-01 14:03N 34°24' W 119°41'0 0.0
2018-Nov-01 13:56N 34°24' W 119°41'0 0.0
2018-Nov-01 13:29N 34°24' W 119°41'0 0.0
2018-Oct-31 13:34N 34°24' W 119°41'0 0.0
2018-Oct-31 13:30N 34°24' W 119°41'0 0.0
2018-Oct-30 22:02N 34°24' W 119°41'0 0.0
2018-Oct-30 22:00N 34°24' W 119°41'4 8.7
2018-Oct-30 21:30N 34°23' W 119°46'4 8.5
2018-Oct-30 21:03N 34°23' W 119°51'0 1.0
2018-Oct-30 21:00N 34°23' W 119°51'0 0.4
2018-Oct-30 20:30N 34°23' W 119°51'0 0.4
2018-Oct-30 20:03N 34°23' W 119°51'0 0.1
2018-Oct-30 20:00N 34°23' W 119°51'0 0.6
2018-Oct-30 19:30N 34°23' W 119°52'0 0.6
2018-Oct-30 19:02N 34°23' W 119°52'0 1.4
2018-Oct-30 19:00N 34°23' W 119°52'0 0.6
2018-Oct-30 18:29N 34°23' W 119°52'511.2
2018-Oct-30 18:03N 34°24' W 119°58'115.1
2018-Oct-30 18:00N 34°24' W 119°59'0 0.3
2018-Oct-30 17:30N 34°24' W 119°59'0 0.4
2018-Oct-30 17:02N 34°24' W 119°59'0 0.2
2018-Oct-30 17:00N 34°24' W 119°59'0 0.5
2018-Oct-30 16:31N 34°24' W 119°59'0 0.4
2018-Oct-30 16:01N 34°24' W 119°60'0 0.1
2018-Oct-30 15:58N 34°24' W 119°60'0 0.2
2018-Oct-30 15:30N 34°24' W 119°60'613.1
2018-Oct-30 15:03N 34°23' W 119°53'115.0
2018-Oct-30 15:00N 34°23' W 119°52'9 9.2
2018-Oct-30 14:03N 34°24' W 119°41'0 0.0
2018-Oct-30 13:29N 34°24' W 119°41'0 0.0
2018-Oct-30 00:47N 34°24' W 119°41'0 0.6
2018-Oct-30 00:30N 34°24' W 119°42'1 1.7
2018-Oct-30 00:03N 34°24' W 119°41'119.6
2018-Oct-30 00:00N 34°23' W 119°40'1019.9
2018-Oct-29 23:30N 34°14' W 119°35'920.0
2018-Oct-29 23:03N 34°06' W 119°29'120.5
2018-Oct-29 23:01N 34°06' W 119°29'917.8
2018-Oct-29 22:30N 33°57' W 119°25'2 4.0
2018-Oct-29 22:03N 33°57' W 119°27'121.8
2018-Oct-29 22:00N 33°57' W 119°28'1 2.3
2018-Oct-29 21:30N 33°58' W 119°29'1 1.6
2018-Oct-29 21:03N 33°58' W 119°29'0 0.2
2018-Oct-29 21:00N 33°58' W 119°29'0 0.7
2018-Oct-29 20:30N 33°58' W 119°29'0 0.2
2018-Oct-29 20:03N 33°58' W 119°29'0 1.1
2018-Oct-29 20:00N 33°58' W 119°29'0 0.2
2018-Oct-29 19:30N 33°58' W 119°29'0 1.0
2018-Oct-29 19:03N 33°58' W 119°29'0 0.2
2018-Oct-29 19:00N 33°58' W 119°29'0 0.3
2018-Oct-29 18:30N 33°58' W 119°28'0 0.3
2018-Oct-29 18:03N 33°58' W 119°28'0 0.1
2018-Oct-29 18:00N 33°58' W 119°28'0 0.2
2018-Oct-29 17:30N 33°57' W 119°28'0 0.3
2018-Oct-29 17:03N 33°57' W 119°28'0 0.4
2018-Oct-29 17:00N 33°57' W 119°28'0 0.2
2018-Oct-29 16:30N 33°57' W 119°28'0 0.5
2018-Oct-29 16:03N 33°57' W 119°28'0 1.2
2018-Oct-29 16:00N 33°57' W 119°28'714.7
2018-Oct-29 15:30N 34°05' W 119°30'818.7
2018-Oct-29 15:03N 34°12' W 119°35'118.6
2018-Oct-29 15:01N 34°13' W 119°35'1018.8
2018-Oct-29 14:30N 34°22' W 119°40'3 6.1
2018-Oct-29 14:00N 34°24' W 119°41'0 0.0
2018-Oct-29 00:06N 34°24' W 119°41'0 0.0
2018-Oct-29 00:03N 34°24' W 119°41'0 1.2
2018-Oct-29 00:00N 34°24' W 119°41'815.6
2018-Oct-28 23:30N 34°18' W 119°37'818.1
2018-Oct-28 23:04N 34°11' W 119°31'0 0.9
2018-Oct-28 22:59N 34°11' W 119°31'0 0.2
2018-Oct-28 22:31N 34°11' W 119°31'0 0.8
2018-Oct-28 22:03N 34°11' W 119°31'0 0.0
2018-Oct-28 22:00N 34°11' W 119°31'0 0.1
2018-Oct-28 21:30N 34°11' W 119°31'0 0.1
2018-Oct-28 21:03N 34°11' W 119°31'0 0.3
2018-Oct-28 21:00N 34°11' W 119°31'815.8
2018-Oct-28 20:30N 34°13' W 119°41'0 0.9
2018-Oct-28 20:03N 34°13' W 119°41'0 0.0
2018-Oct-28 20:00N 34°13' W 119°41'0 0.1
2018-Oct-28 19:31N 34°13' W 119°41'0 0.7
2018-Oct-28 19:03N 34°13' W 119°40'0 2.1
2018-Oct-28 19:00N 34°13' W 119°40'0 0.5
2018-Oct-28 18:30N 34°13' W 119°40'1 2.4
2018-Oct-28 18:03N 34°13' W 119°41'0 0.1
2018-Oct-28 17:59N 34°13' W 119°41'0 0.2
2018-Oct-28 17:30N 34°13' W 119°41'0 0.2
2018-Oct-28 17:03N 34°13' W 119°41'0 0.3
2018-Oct-28 17:00N 34°13' W 119°41'0 0.5
2018-Oct-28 16:30N 34°14' W 119°41'1 2.2
2018-Oct-28 16:03N 34°14' W 119°42'0 1.0
2018-Oct-28 16:00N 34°14' W 119°42'2 4.6
2018-Oct-28 15:30N 34°16' W 119°42'818.6
2018-Oct-28 15:04N 34°24' W 119°41'0 7.1
2018-Oct-28 15:00N 34°25' W 119°41'0 0.7
2018-Oct-28 14:30N 34°24' W 119°42'0 0.3
2018-Oct-28 14:00N 34°24' W 119°41'0 0.0
2018-Oct-28 01:38N 34°24' W 119°41'0 1.9
2018-Oct-28 01:30N 34°24' W 119°41'614.4
2018-Oct-28 01:03N 34°19' W 119°45'118.1
2018-Oct-28 01:00N 34°18' W 119°45'917.2
2018-Oct-28 00:30N 34°11' W 119°51'816.8
2018-Oct-28 00:03N 34°05' W 119°56'115.2
2018-Oct-28 00:00N 34°04' W 119°57'816.1
2018-Oct-27 23:30N 33°56' W 119°57'817.3
2018-Oct-27 23:03N 33°49' W 120°00'117.2
2018-Oct-27 23:01N 33°48' W 120°01'510.6
2018-Oct-27 22:31N 33°43' W 120°03'0 0.1
2018-Oct-27 22:03N 33°43' W 120°03'0 0.2
2018-Oct-27 22:00N 33°43' W 120°03'0 0.2
2018-Oct-27 21:31N 33°43' W 120°03'1 1.4
2018-Oct-27 21:03N 33°42' W 120°03'0 2.0
2018-Oct-27 20:58N 33°42' W 120°03'0 0.8
2018-Oct-27 20:31N 33°42' W 120°03'1 2.8
2018-Oct-27 20:03N 33°42' W 120°01'117.4
2018-Oct-27 20:00N 33°43' W 120°01'4 7.4
2018-Oct-27 19:29N 33°46' W 119°59'0 0.5
2018-Oct-27 19:02N 33°46' W 119°59'0 0.0
2018-Oct-27 18:59N 33°46' W 119°59'0 0.4
2018-Oct-27 18:30N 33°46' W 119°59'0 0.0
2018-Oct-27 18:04N 33°46' W 119°59'0 1.2
2018-Oct-27 18:00N 33°46' W 119°59'4 8.7
2018-Oct-27 17:30N 33°48' W 120°04'818.4
2018-Oct-27 17:03N 33°53' W 120°12'118.1
2018-Oct-27 17:00N 33°53' W 120°13'1018.6
2018-Oct-27 16:27N 33°59' W 120°24'616.2
2018-Oct-27 16:04N 34°02' W 120°30'116.2
2018-Oct-27 16:00N 34°03' W 120°31'2 5.0
2018-Oct-27 15:30N 34°05' W 120°31'511.9
2018-Oct-27 15:03N 34°06' W 120°25'1 8.7
2018-Oct-27 15:00N 34°05' W 120°24'3 3.4
2018-Oct-27 14:03N 34°03' W 120°21'0 0.1
2018-Oct-27 14:00N 34°03' W 120°21'0 0.0
2018-Oct-27 13:30N 34°03' W 120°21'0 0.0
2018-Oct-27 13:03N 34°03' W 120°21'0 0.1
2018-Oct-27 13:00N 34°03' W 120°21'0 0.0
2018-Oct-27 12:30N 34°03' W 120°21'0 0.0
2018-Oct-27 12:03N 34°03' W 120°21'0 0.3
2018-Oct-27 12:01N 34°03' W 120°21'0 0.0
2018-Oct-27 11:30N 34°03' W 120°21'0 0.0
2018-Oct-27 11:03N 34°03' W 120°21'0 0.1
2018-Oct-27 11:00N 34°03' W 120°21'0 0.0
2018-Oct-27 10:30N 34°03' W 120°21'0 0.0
2018-Oct-27 10:03N 34°03' W 120°21'0 0.0
2018-Oct-27 10:00N 34°03' W 120°21'0 0.0
2018-Oct-27 09:31N 34°03' W 120°21'0 0.0
2018-Oct-27 09:03N 34°03' W 120°21'0 0.0
2018-Oct-27 09:00N 34°03' W 120°21'0 0.0
2018-Oct-27 08:30N 34°03' W 120°21'0 0.0
2018-Oct-27 08:03N 34°03' W 120°21'0 0.1
2018-Oct-27 08:00N 34°03' W 120°21'0 0.0
2018-Oct-27 07:30N 34°03' W 120°21'0 0.0
2018-Oct-27 07:03N 34°03' W 120°21'0 0.1
2018-Oct-27 07:01N 34°03' W 120°21'0 0.0
2018-Oct-27 06:30N 34°03' W 120°21'0 0.0
2018-Oct-27 06:03N 34°03' W 120°21'0 0.2
2018-Oct-27 06:01N 34°03' W 120°21'0 0.0
2018-Oct-27 05:30N 34°03' W 120°21'0 0.0
2018-Oct-27 05:03N 34°03' W 120°21'0 0.1
2018-Oct-27 04:59N 34°03' W 120°21'0 0.0
2018-Oct-27 04:29N 34°03' W 120°21'0 0.0
2018-Oct-27 04:03N 34°03' W 120°21'0 0.0
2018-Oct-27 04:00N 34°03' W 120°21'0 0.0
2018-Oct-27 03:31N 34°03' W 120°21'0 0.0
2018-Oct-27 03:03N 34°03' W 120°21'0 0.1
2018-Oct-27 02:59N 34°03' W 120°21'0 0.0
2018-Oct-27 02:30N 34°03' W 120°21'0 0.0
2018-Oct-27 02:03N 34°03' W 120°21'0 0.1
2018-Oct-27 02:00N 34°03' W 120°21'0 0.0
2018-Oct-27 01:30N 34°03' W 120°21'613.6
2018-Oct-27 01:03N 33°59' W 120°16'119.4
2018-Oct-27 01:01N 33°59' W 120°15'14 8.2
2018-Oct-26 23:19N 33°48' W 120°04'416.7
2018-Oct-26 23:03N 33°44' W 120°03'112.3
2018-Oct-26 23:00N 33°43' W 120°03'1 1.1
2018-Oct-26 22:23N 33°43' W 120°02'0 0.6
2018-Oct-26 22:03N 33°43' W 120°02'0 0.0
2018-Oct-26 22:00N 33°43' W 120°02'1 1.4
2018-Oct-26 21:30N 33°43' W 120°03'1 1.1
2018-Oct-26 21:02N 33°44' W 120°03'0 2.4
2018-Oct-26 21:00N 33°44' W 120°03'0 0.6
2018-Oct-26 20:28N 33°43' W 120°03'0 0.6
2018-Oct-26 20:03N 33°43' W 120°03'0 0.1
2018-Oct-26 20:00N 33°43' W 120°03'0 0.2
2018-Oct-26 19:29N 33°43' W 120°03'0 0.2
2018-Oct-26 19:03N 33°43' W 120°03'0 1.1
2018-Oct-26 19:00N 33°43' W 120°03'0 0.2
2018-Oct-26 18:30N 33°43' W 120°03'4 8.4
2018-Oct-26 18:02N 33°43' W 119°58'010.7
2018-Oct-26 18:00N 33°43' W 119°58'3 5.6
2018-Oct-26 17:30N 33°43' W 119°55'1 2.1
2018-Oct-26 17:03N 33°42' W 119°54'0 4.3
2018-Oct-26 17:01N 33°42' W 119°53'0 0.7
2018-Oct-26 16:27N 33°42' W 119°53'0 0.8
2018-Oct-26 15:58N 33°42' W 119°53'0 0.6
2018-Oct-26 15:31N 33°42' W 119°54'3 7.4
2018-Oct-26 15:03N 33°45' W 119°56'119.1
2018-Oct-26 15:00N 33°45' W 119°57'12 0.9
2018-Oct-26 01:44N 33°54' W 120°06'0 0.0
2018-Oct-26 00:11N 33°54' W 120°06'9 8.4
2018-Oct-25 23:08N 33°46' W 120°05'0 1.0
2018-Oct-25 23:03N 33°46' W 120°05'0 1.3
2018-Oct-25 22:58N 33°46' W 120°05'0 0.8
2018-Oct-25 22:30N 33°46' W 120°04'0 0.6
2018-Oct-25 22:01N 33°46' W 120°04'0 1.0
2018-Oct-25 22:00N 33°46' W 120°04'0 0.7
2018-Oct-25 21:19N 33°45' W 120°04'0 0.7
2018-Oct-25 20:53N 33°45' W 120°04'0 0.0
2018-Oct-25 20:24N 33°45' W 120°04'410.6
2018-Oct-25 20:03N 33°46' W 120°00'0 1.3
2018-Oct-25 20:00N 33°46' W 120°00'0 0.6
2018-Oct-25 19:31N 33°45' W 120°00'0 0.8
2018-Oct-25 19:03N 33°46' W 119°60'0 1.3
2018-Oct-25 19:00N 33°45' W 119°60'1 1.2
2018-Oct-25 18:30N 33°45' W 120°00'0 0.7
2018-Oct-25 18:03N 33°45' W 120°00'0 0.4
2018-Oct-25 18:00N 33°45' W 120°00'3 5.6
2018-Oct-25 17:29N 33°48' W 119°60'818.3
2018-Oct-25 17:03N 33°55' W 119°58'118.0
2018-Oct-25 17:00N 33°56' W 119°58'917.0
2018-Oct-25 16:30N 34°05' W 119°56'817.9
2018-Oct-25 16:03N 34°11' W 119°51'118.0
2018-Oct-25 16:00N 34°12' W 119°51'917.8
2018-Oct-25 15:30N 34°20' W 119°44'510.1
2018-Oct-25 14:59N 34°24' W 119°42'0 0.0
2018-Oct-25 14:29N 34°24' W 119°42'0 0.3
2018-Oct-25 14:00N 34°24' W 119°41'0 0.0
2018-Oct-25 13:29N 34°24' W 119°41'0 0.0
2018-Oct-25 00:22N 34°24' W 119°41'2 7.0
2018-Oct-25 00:03N 34°22' W 119°40'118.1
2018-Oct-25 00:00N 34°22' W 119°40'917.5
2018-Oct-24 23:30N 34°14' W 119°36'817.8
2018-Oct-24 23:03N 34°06' W 119°32'118.3
2018-Oct-24 23:01N 34°05' W 119°32'815.0
2018-Oct-24 22:30N 33°58' W 119°35'510.1
2018-Oct-24 22:03N 33°56' W 119°40'0 0.0
2018-Oct-24 22:00N 33°56' W 119°40'0 0.7
2018-Oct-24 21:30N 33°56' W 119°40'1 1.4
2018-Oct-24 21:03N 33°56' W 119°39'0 0.0
2018-Oct-24 20:58N 33°56' W 119°39'0 0.0
2018-Oct-24 20:31N 33°56' W 119°39'2 5.2
2018-Oct-24 20:03N 33°57' W 119°42'0 2.8
2018-Oct-24 19:59N 33°57' W 119°42'0 0.8
2018-Oct-24 19:31N 33°57' W 119°42'0 0.5
2018-Oct-24 19:03N 33°56' W 119°42'0 0.9
2018-Oct-24 18:30N 33°56' W 119°42'613.8
2018-Oct-24 18:03N 33°55' W 119°49'0 8.4
2018-Oct-24 18:00N 33°55' W 119°50'0 0.5
2018-Oct-24 17:30N 33°55' W 119°50'1 0.8
2018-Oct-24 16:42N 33°56' W 119°51'0 0.4
2018-Oct-24 16:03N 33°56' W 119°50'0 0.2
2018-Oct-24 15:54N 33°56' W 119°50'0 0.1
2018-Oct-24 15:29N 33°56' W 119°50'4 7.9
2018-Oct-24 14:58N 33°56' W 119°45'918.9
2018-Oct-24 14:30N 33°59' W 119°35'4 6.2
2018-Oct-24 13:56N 34°01' W 119°32'0 0.0
2018-Oct-24 11:56N 34°01' W 119°32'0 0.0
2018-Oct-24 10:26N 34°01' W 119°32'0 0.0
2018-Oct-24 02:50N 34°01' W 119°32'0 0.0
2018-Oct-24 02:20N 34°01' W 119°32'0 0.0
2018-Oct-24 02:02N 34°01' W 119°32'0 0.0
2018-Oct-24 01:02N 34°01' W 119°32'0 0.0
2018-Oct-24 00:59N 34°01' W 119°32'0 0.0
2018-Oct-24 00:30N 34°01' W 119°32'0 0.0
2018-Oct-24 00:03N 34°01' W 119°32'0 0.1
2018-Oct-24 00:00N 34°01' W 119°32'0 0.0
2018-Oct-23 23:30N 34°01' W 119°32'0 0.0
2018-Oct-23 23:03N 34°01' W 119°32'0 0.0
2018-Oct-23 23:00N 34°01' W 119°32'4 7.1
2018-Oct-23 22:30N 33°58' W 119°30'0 0.5
2018-Oct-23 22:02N 33°58' W 119°30'0 0.0
2018-Oct-23 21:59N 33°58' W 119°30'  

Dump ship's entire track history